KSHD/SHD METAR and TAF weather

Enter ICAO airport designator
Station Type Date Time Source
KSHD METAR 2019/12/06 13:55 UTC NOAA

KSHD 061355Z AUTO 00000KT 10SM SCT120 00/M03 A3015 RMK AO2 T00041034


Station Type Date Time Source
KSHD Decoded METAR 2019/12/06 13:55 UTC NOAA

Staunton / Shenandoah, VA, United States (KSHD) 38-16N 078-54W
Dec 06, 2019 - 08:55 AM EST / 2019.12.06 1355 UTC
Wind: Calm:0
Visibility: 10 mile(s):0
Sky conditions: partly cloudy
Temperature: 32.7 F (0.4 C)
Dew Point: 25.9 F (-3.4 C)
Relative Humidity: 75%
Pressure (altimeter): 30.15 in. Hg (1020 hPa)
ob: KSHD 061355Z AUTO 00000KT 10SM SCT120 00/M03 A3015 RMK AO2 T00041034
cycle: 14

Station Type Date Time Source
KSHD TAF UTC NOAA

Error!

Example: see airport list